Miho Air Base, Japan

10:06 AM JST on September 23, 2014 (GMT +0900)
Miho Aero | Change Station
CLOSE
Current Station
Airport
Location: Miho AB,
Elevation: 20 ft
Nearby Weather Stations

Elev 20 ft 35.49 °N, 133.24 °E | Updated 6 minutes ago

Partly Cloudy
Partly Cloudy
75 °F
Feels Like 75 °F
N
9
Wind Variable Wind from ENE

Today
High -- | Low -- °F
--% Chance of Precip.
Yesterday
High -- | Low -- °F
Precip. -- in
5:55 AM 6:03 PM
Waning Crescent, 1% visible
Pressure 30.12 in
Visibility 6.2 miles
Clouds Few 18000 ft
Dew Point 57 °F
Humidity 53%
Rainfall 0.00 in
Snow Depth Not available.
UV 6 out of 12
Pollen Not available.
Air Quality Not available.
Flu Activity Not available.
METAR RJOH 230100Z 07008KT 040V100 9999 FEW180 24/14 Q1020

More Conditions Fewer Conditions

Pressure 30.12 in
Visibility 6.2 miles
Clouds Few 18000 ft
Dew Point 57 °F
Humidity 53%
Rainfall 0.00 in
Snow Depth Not available.
UV 6 out of 12
Pollen Not available.
Air Quality Not available.
Flu Activity Not available.
METAR RJOH 230100Z 07008KT 040V100 9999 FEW180 24/14 Q1020

More Conditions Fewer Conditions

10-Day Weather Forecast

Almanac

Astronomy

Sep. 23, 2014 Rise Set
Actual Time 5:55 AM JST 6:03 PM JST
Civil Twilight 5:29 AM JST 6:28 PM JST
Nautical Twilight 5:00 AM JST 6:58 PM JST
Astronomical Twilight 4:30 AM JST 7:28 PM JST
Moon 4:46 AM JST 5:22 PM JST
Length of Visible Light 12h 58m
Length of Day
12h 07m
Tomorrow will be 2m 13s shorter.
Waning Crescent, 1% of the Moon is Illuminated
Sep 22
Waning Crescent
Sep 24
New
Oct 1
First Quarter
Oct 8
Full
Oct 15
Last Quarter

Yesterday's Extremes

Country Highs Country Lows

Community

WunderPhotos

Upload Photos

1,755,579 photos uploaded!

Nearby

Snow Depth

Not available.

Earthquake Activity

City Distance Mag. Time & Date
No recent earthquake activity has been reported nearby.
Minimum magnitude displayed is 2.5.

Coastal Water Temperatures

Place Temperature
No Stations Reporting

Nearby Weather Stations